ADS weather

Addison Airport
Dallas, Texas, United States

Public forecast

Using degrees Fahrenheit for public forecast. Weather courtesy of forecast.io.

Current aviation weather report (METAR) for Addison Airport

Retrieved 2020/08/04 10:35 UTC (1 hour ago):

KADS 041035Z AUTO 07006KT 10SM CLR 24/15 A3005 RMK AO2 T02350151

Closest aviation forecast (TAF) to Addison Airport

Closest forecast is Dallas Love Field, 7.3 nm (13.6 km) S. Retrieved 2020/08/04 06:33 UTC (5 hours ago):

TAF KDAL 040530Z 0406/0506 06007KT P6SM FEW250